sensor_id;sensor_type;location;lat;lon;timestamp;P1;durP1;ratioP1;P2;durP2;ratioP2
76818;SDS011;65772;51.096;17.006;2023-02-10T00:00:45;17.30;;;7.70;;
76818;SDS011;65772;51.096;17.006;2023-02-10T00:03:13;18.50;;;7.40;;
76818;SDS011;65772;51.096;17.006;2023-02-10T00:05:41;17.70;;;8.20;;
76818;SDS011;65772;51.096;17.006;2023-02-10T00:08:08;17.40;;;9.40;;
76818;SDS011;65772;51.096;17.006;2023-02-10T00:10:36;19.50;;;8.30;;
76818;SDS011;65772;51.096;17.006;2023-02-10T00:13:05;16.30;;;7.70;;
76818;SDS011;65772;51.096;17.006;2023-02-10T00:15:32;18.20;;;7.50;;
76818;SDS011;65772;51.096;17.006;2023-02-10T00:18:00;16.50;;;7.40;;
76818;SDS011;65772;51.096;17.006;2023-02-10T00:20:28;17.40;;;7.90;;
76818;SDS011;65772;51.096;17.006;2023-02-10T00:22:55;17.90;;;8.10;;
76818;SDS011;65772;51.096;17.006;2023-02-10T00:25:23;16.40;;;7.50;;
76818;SDS011;65772;51.096;17.006;2023-02-10T00:27:51;18.00;;;8.80;;
76818;SDS011;65772;51.096;17.006;2023-02-10T00:30:19;17.60;;;7.60;;
76818;SDS011;65772;51.096;17.006;2023-02-10T00:32:47;18.50;;;7.90;;
76818;SDS011;65772;51.096;17.006;2023-02-10T00:35:15;18.80;;;8.60;;
76818;SDS011;65772;51.096;17.006;2023-02-10T00:37:43;19.30;;;8.10;;
76818;SDS011;65772;51.096;17.006;2023-02-10T00:40:10;17.20;;;7.70;;
76818;SDS011;65772;51.096;17.006;2023-02-10T00:42:38;16.10;;;7.70;;
76818;SDS011;65772;51.096;17.006;2023-02-10T00:45:07;18.80;;;8.00;;
76818;SDS011;65772;51.096;17.006;2023-02-10T00:47:35;16.10;;;8.00;;
76818;SDS011;65772;51.096;17.006;2023-02-10T00:50:05;16.70;;;8.30;;
76818;SDS011;65772;51.096;17.006;2023-02-10T00:52:34;15.60;;;8.10;;
76818;SDS011;65772;51.096;17.006;2023-02-10T00:55:02;17.10;;;7.40;;
76818;SDS011;65772;51.096;17.006;2023-02-10T00:57:30;17.00;;;7.60;;
76818;SDS011;65772;51.096;17.006;2023-02-10T00:59:58;18.40;;;8.60;;
76818;SDS011;65772;51.096;17.006;2023-02-10T01:02:25;18.30;;;7.60;;
76818;SDS011;65772;51.096;17.006;2023-02-10T01:04:53;19.00;;;8.10;;
76818;SDS011;65772;51.096;17.006;2023-02-10T01:07:23;14.60;;;7.40;;
76818;SDS011;65772;51.096;17.006;2023-02-10T01:09:52;15.70;;;7.70;;
76818;SDS011;65772;51.096;17.006;2023-02-10T01:12:20;16.60;;;7.70;;
76818;SDS011;65772;51.096;17.006;2023-02-10T01:14:47;15.20;;;7.00;;
76818;SDS011;65772;51.096;17.006;2023-02-10T01:17:16;16.90;;;8.30;;
76818;SDS011;65772;51.096;17.006;2023-02-10T01:19:43;15.80;;;7.40;;
76818;SDS011;65772;51.096;17.006;2023-02-10T01:22:11;15.80;;;8.10;;
76818;SDS011;65772;51.096;17.006;2023-02-10T01:24:39;18.70;;;8.50;;
76818;SDS011;65772;51.096;17.006;2023-02-10T01:27:07;17.10;;;7.90;;
76818;SDS011;65772;51.096;17.006;2023-02-10T01:29:35;16.30;;;7.90;;
76818;SDS011;65772;51.096;17.006;2023-02-10T01:32:03;16.40;;;8.40;;
76818;SDS011;65772;51.096;17.006;2023-02-10T01:34:30;20.10;;;8.90;;
76818;SDS011;65772;51.096;17.006;2023-02-10T01:36:58;19.20;;;8.90;;
76818;SDS011;65772;51.096;17.006;2023-02-10T01:39:26;20.90;;;9.30;;
76818;SDS011;65772;51.096;17.006;2023-02-10T01:41:54;17.40;;;8.20;;
76818;SDS011;65772;51.096;17.006;2023-02-10T01:47:26;20.00;;;8.80;;
76818;SDS011;65772;51.096;17.006;2023-02-10T01:49:55;18.10;;;8.60;;
76818;SDS011;65772;51.096;17.006;2023-02-10T01:52:23;23.00;;;8.80;;
76818;SDS011;65772;51.096;17.006;2023-02-10T01:54:56;17.90;;;8.90;;
76818;SDS011;65772;51.096;17.006;2023-02-10T01:57:28;17.70;;;8.60;;
76818;SDS011;65772;51.096;17.006;2023-02-10T01:59:56;18.20;;;8.70;;
76818;SDS011;65772;51.096;17.006;2023-02-10T02:02:26;17.30;;;7.60;;
76818;SDS011;65772;51.096;17.006;2023-02-10T02:04:59;17.20;;;8.60;;
76818;SDS011;65772;51.096;17.006;2023-02-10T02:09:59;13.50;;;6.30;;
76818;SDS011;65772;51.096;17.006;2023-02-10T02:12:33;18.40;;;7.90;;
76818;SDS011;65772;51.096;17.006;2023-02-10T02:15:10;14.90;;;8.00;;
76818;SDS011;65772;51.096;17.006;2023-02-10T02:17:43;15.30;;;7.20;;
76818;SDS011;65772;51.096;17.006;2023-02-10T02:20:30;20.70;;;8.60;;
76818;SDS011;65772;51.096;17.006;2023-02-10T02:23:23;18.50;;;9.10;;
76818;SDS011;65772;51.096;17.006;2023-02-10T02:29:15;17.30;;;8.00;;
76818;SDS011;65772;51.096;17.006;2023-02-10T02:31:58;19.10;;;8.80;;
76818;SDS011;65772;51.096;17.006;2023-02-10T02:34:30;17.90;;;8.30;;
76818;SDS011;65772;51.096;17.006;2023-02-10T02:37:08;15.60;;;7.50;;
76818;SDS011;65772;51.096;17.006;2023-02-10T02:39:42;19.10;;;8.30;;
76818;SDS011;65772;51.096;17.006;2023-02-10T02:42:16;16.60;;;7.90;;
76818;SDS011;65772;51.096;17.006;2023-02-10T02:44:46;17.50;;;7.50;;
76818;SDS011;65772;51.096;17.006;2023-02-10T02:47:19;19.10;;;8.30;;
76818;SDS011;65772;51.096;17.006;2023-02-10T02:49:58;19.20;;;8.60;;
76818;SDS011;65772;51.096;17.006;2023-02-10T02:52:38;14.20;;;5.90;;
76818;SDS011;65772;51.096;17.006;2023-02-10T02:55:21;19.40;;;7.90;;
76818;SDS011;65772;51.096;17.006;2023-02-10T02:57:59;17.00;;;8.30;;
76818;SDS011;65772;51.096;17.006;2023-02-10T03:00:36;18.90;;;8.30;;
76818;SDS011;65772;51.096;17.006;2023-02-10T03:03:07;17.90;;;8.60;;
76818;SDS011;65772;51.096;17.006;2023-02-10T03:05:37;17.10;;;8.00;;
76818;SDS011;65772;51.096;17.006;2023-02-10T03:08:04;15.10;;;7.40;;
76818;SDS011;65772;51.096;17.006;2023-02-10T03:10:32;16.40;;;7.80;;
76818;SDS011;65772;51.096;17.006;2023-02-10T03:13:00;15.90;;;7.30;;
76818;SDS011;65772;51.096;17.006;2023-02-10T03:15:28;17.40;;;7.20;;
76818;SDS011;65772;51.096;17.006;2023-02-10T03:17:57;17.70;;;8.20;;
76818;SDS011;65772;51.096;17.006;2023-02-10T03:20:24;14.80;;;6.90;;
76818;SDS011;65772;51.096;17.006;2023-02-10T03:22:52;15.20;;;7.40;;
76818;SDS011;65772;51.096;17.006;2023-02-10T03:25:20;20.50;;;8.90;;
76818;SDS011;65772;51.096;17.006;2023-02-10T03:27:47;17.30;;;8.40;;
76818;SDS011;65772;51.096;17.006;2023-02-10T03:30:15;21.80;;;8.30;;
76818;SDS011;65772;51.096;17.006;2023-02-10T03:32:43;17.80;;;8.40;;
76818;SDS011;65772;51.096;17.006;2023-02-10T03:35:12;18.70;;;8.50;;
76818;SDS011;65772;51.096;17.006;2023-02-10T03:37:40;19.50;;;8.50;;
76818;SDS011;65772;51.096;17.006;2023-02-10T03:40:09;20.20;;;9.00;;
76818;SDS011;65772;51.096;17.006;2023-02-10T03:42:38;16.00;;;7.80;;
76818;SDS011;65772;51.096;17.006;2023-02-10T03:45:07;15.90;;;7.90;;
76818;SDS011;65772;51.096;17.006;2023-02-10T03:47:36;20.50;;;8.60;;
76818;SDS011;65772;51.096;17.006;2023-02-10T03:50:04;19.60;;;8.50;;
76818;SDS011;65772;51.096;17.006;2023-02-10T03:52:32;20.80;;;9.00;;
76818;SDS011;65772;51.096;17.006;2023-02-10T03:55:03;22.00;;;9.20;;
76818;SDS011;65772;51.096;17.006;2023-02-10T03:57:32;19.50;;;9.10;;
76818;SDS011;65772;51.096;17.006;2023-02-10T04:00:00;16.00;;;8.00;;
76818;SDS011;65772;51.096;17.006;2023-02-10T04:02:38;18.10;;;8.10;;
76818;SDS011;65772;51.096;17.006;2023-02-10T04:05:06;22.20;;;9.80;;
76818;SDS011;65772;51.096;17.006;2023-02-10T04:07:34;20.20;;;10.70;;
76818;SDS011;65772;51.096;17.006;2023-02-10T04:10:03;21.00;;;9.90;;
76818;SDS011;65772;51.096;17.006;2023-02-10T04:12:32;21.70;;;9.60;;
76818;SDS011;65772;51.096;17.006;2023-02-10T04:15:00;22.70;;;10.30;;
76818;SDS011;65772;51.096;17.006;2023-02-10T04:17:28;22.80;;;10.00;;
76818;SDS011;65772;51.096;17.006;2023-02-10T04:19:56;20.40;;;9.40;;
76818;SDS011;65772;51.096;17.006;2023-02-10T04:22:23;20.10;;;8.80;;
76818;SDS011;65772;51.096;17.006;2023-02-10T04:24:51;21.10;;;9.30;;
76818;SDS011;65772;51.096;17.006;2023-02-10T04:27:19;19.30;;;7.80;;
76818;SDS011;65772;51.096;17.006;2023-02-10T04:29:47;20.60;;;9.30;;
76818;SDS011;65772;51.096;17.006;2023-02-10T04:32:14;17.20;;;7.20;;
76818;SDS011;65772;51.096;17.006;2023-02-10T04:34:42;15.10;;;7.40;;
76818;SDS011;65772;51.096;17.006;2023-02-10T04:37:10;23.60;;;9.70;;
76818;SDS011;65772;51.096;17.006;2023-02-10T04:39:37;17.00;;;8.20;;
76818;SDS011;65772;51.096;17.006;2023-02-10T04:42:05;19.60;;;9.00;;
76818;SDS011;65772;51.096;17.006;2023-02-10T04:44:33;24.90;;;9.20;;
76818;SDS011;65772;51.096;17.006;2023-02-10T04:47:01;17.70;;;7.90;;
76818;SDS011;65772;51.096;17.006;2023-02-10T04:49:29;19.70;;;9.60;;
76818;SDS011;65772;51.096;17.006;2023-02-10T04:51:57;21.70;;;8.90;;
76818;SDS011;65772;51.096;17.006;2023-02-10T04:54:25;19.50;;;8.80;;
76818;SDS011;65772;51.096;17.006;2023-02-10T04:56:52;14.40;;;7.50;;
76818;SDS011;65772;51.096;17.006;2023-02-10T04:59:20;18.50;;;9.10;;
76818;SDS011;65772;51.096;17.006;2023-02-10T05:01:48;18.80;;;8.70;;
76818;SDS011;65772;51.096;17.006;2023-02-10T05:04:16;20.30;;;9.40;;
76818;SDS011;65772;51.096;17.006;2023-02-10T05:06:43;16.00;;;7.70;;
76818;SDS011;65772;51.096;17.006;2023-02-10T05:09:11;21.10;;;9.70;;
76818;SDS011;65772;51.096;17.006;2023-02-10T05:11:39;17.30;;;7.90;;
76818;SDS011;65772;51.096;17.006;2023-02-10T05:14:08;19.70;;;9.10;;
76818;SDS011;65772;51.096;17.006;2023-02-10T05:16:36;19.80;;;8.80;;
76818;SDS011;65772;51.096;17.006;2023-02-10T05:19:04;18.00;;;9.10;;
76818;SDS011;65772;51.096;17.006;2023-02-10T05:21:31;19.40;;;9.00;;
76818;SDS011;65772;51.096;17.006;2023-02-10T05:23:59;21.80;;;11.00;;
76818;SDS011;65772;51.096;17.006;2023-02-10T05:26:27;21.00;;;9.90;;
76818;SDS011;65772;51.096;17.006;2023-02-10T05:28:55;19.50;;;10.10;;
76818;SDS011;65772;51.096;17.006;2023-02-10T05:31:22;19.50;;;8.90;;
76818;SDS011;65772;51.096;17.006;2023-02-10T05:33:50;17.50;;;8.60;;
76818;SDS011;65772;51.096;17.006;2023-02-10T05:36:19;19.60;;;9.30;;
76818;SDS011;65772;51.096;17.006;2023-02-10T05:38:47;20.60;;;9.30;;
76818;SDS011;65772;51.096;17.006;2023-02-10T05:41:29;21.10;;;9.30;;
76818;SDS011;65772;51.096;17.006;2023-02-10T05:43:59;20.00;;;8.20;;
76818;SDS011;65772;51.096;17.006;2023-02-10T05:46:27;16.70;;;7.80;;
76818;SDS011;65772;51.096;17.006;2023-02-10T05:48:55;18.90;;;8.70;;
76818;SDS011;65772;51.096;17.006;2023-02-10T05:51:22;22.50;;;9.70;;
76818;SDS011;65772;51.096;17.006;2023-02-10T05:53:50;24.80;;;10.60;;
76818;SDS011;65772;51.096;17.006;2023-02-10T05:56:19;19.60;;;9.10;;
76818;SDS011;65772;51.096;17.006;2023-02-10T05:58:47;18.30;;;8.20;;
76818;SDS011;65772;51.096;17.006;2023-02-10T06:01:15;19.00;;;9.40;;
76818;SDS011;65772;51.096;17.006;2023-02-10T06:03:43;23.40;;;9.90;;
76818;SDS011;65772;51.096;17.006;2023-02-10T06:06:10;16.90;;;8.00;;
76818;SDS011;65772;51.096;17.006;2023-02-10T06:08:38;16.30;;;7.90;;
76818;SDS011;65772;51.096;17.006;2023-02-10T06:11:06;19.40;;;9.20;;
76818;SDS011;65772;51.096;17.006;2023-02-10T06:13:34;21.70;;;9.80;;
76818;SDS011;65772;51.096;17.006;2023-02-10T06:16:03;24.80;;;9.90;;
76818;SDS011;65772;51.096;17.006;2023-02-10T06:18:33;20.00;;;9.40;;
76818;SDS011;65772;51.096;17.006;2023-02-10T06:21:00;17.80;;;7.80;;
76818;SDS011;65772;51.096;17.006;2023-02-10T06:23:28;22.30;;;9.70;;
76818;SDS011;65772;51.096;17.006;2023-02-10T06:25:56;21.80;;;10.10;;
76818;SDS011;65772;51.096;17.006;2023-02-10T06:28:25;23.20;;;10.80;;
76818;SDS011;65772;51.096;17.006;2023-02-10T06:30:54;19.60;;;9.10;;
76818;SDS011;65772;51.096;17.006;2023-02-10T06:33:22;19.80;;;8.80;;
76818;SDS011;65772;51.096;17.006;2023-02-10T06:35:51;20.00;;;9.10;;
76818;SDS011;65772;51.096;17.006;2023-02-10T06:38:19;23.70;;;9.80;;
76818;SDS011;65772;51.096;17.006;2023-02-10T06:40:47;21.50;;;9.30;;
76818;SDS011;65772;51.096;17.006;2023-02-10T06:43:16;22.80;;;9.80;;
76818;SDS011;65772;51.096;17.006;2023-02-10T06:45:44;21.00;;;10.10;;
76818;SDS011;65772;51.096;17.006;2023-02-10T06:48:12;21.50;;;9.40;;
76818;SDS011;65772;51.096;17.006;2023-02-10T06:50:40;20.20;;;9.50;;
76818;SDS011;65772;51.096;17.006;2023-02-10T06:53:09;24.00;;;10.70;;
76818;SDS011;65772;51.096;17.006;2023-02-10T06:55:37;21.50;;;10.50;;
76818;SDS011;65772;51.096;17.006;2023-02-10T06:58:05;20.90;;;9.00;;
76818;SDS011;65772;51.096;17.006;2023-02-10T07:00:33;23.80;;;9.20;;
76818;SDS011;65772;51.096;17.006;2023-02-10T07:03:01;20.20;;;9.00;;
76818;SDS011;65772;51.096;17.006;2023-02-10T07:05:29;21.10;;;9.90;;
76818;SDS011;65772;51.096;17.006;2023-02-10T07:07:58;19.90;;;8.50;;
76818;SDS011;65772;51.096;17.006;2023-02-10T07:10:28;22.00;;;8.60;;
76818;SDS011;65772;51.096;17.006;2023-02-10T07:12:57;19.40;;;8.40;;
76818;SDS011;65772;51.096;17.006;2023-02-10T07:15:26;24.20;;;10.10;;
76818;SDS011;65772;51.096;17.006;2023-02-10T07:17:54;21.00;;;8.50;;
76818;SDS011;65772;51.096;17.006;2023-02-10T07:20:23;15.80;;;8.60;;
76818;SDS011;65772;51.096;17.006;2023-02-10T07:22:51;19.00;;;8.40;;
76818;SDS011;65772;51.096;17.006;2023-02-10T07:25:20;18.90;;;9.00;;
76818;SDS011;65772;51.096;17.006;2023-02-10T07:27:48;26.00;;;10.40;;
76818;SDS011;65772;51.096;17.006;2023-02-10T07:30:17;21.40;;;8.60;;
76818;SDS011;65772;51.096;17.006;2023-02-10T07:32:45;20.70;;;10.30;;
76818;SDS011;65772;51.096;17.006;2023-02-10T07:35:13;20.70;;;9.40;;
76818;SDS011;65772;51.096;17.006;2023-02-10T07:37:42;19.80;;;8.70;;
76818;SDS011;65772;51.096;17.006;2023-02-10T07:40:10;25.50;;;10.10;;
76818;SDS011;65772;51.096;17.006;2023-02-10T07:42:39;19.50;;;8.30;;
76818;SDS011;65772;51.096;17.006;2023-02-10T07:45:30;19.10;;;8.90;;
76818;SDS011;65772;51.096;17.006;2023-02-10T07:47:58;18.60;;;9.00;;
76818;SDS011;65772;51.096;17.006;2023-02-10T07:50:26;21.10;;;8.50;;
76818;SDS011;65772;51.096;17.006;2023-02-10T07:52:58;18.40;;;8.80;;
76818;SDS011;65772;51.096;17.006;2023-02-10T07:55:26;20.70;;;8.80;;
76818;SDS011;65772;51.096;17.006;2023-02-10T07:57:54;17.40;;;9.20;;
76818;SDS011;65772;51.096;17.006;2023-02-10T08:00:23;22.60;;;9.70;;
76818;SDS011;65772;51.096;17.006;2023-02-10T08:02:51;20.20;;;8.20;;
76818;SDS011;65772;51.096;17.006;2023-02-10T08:05:19;22.00;;;9.30;;
76818;SDS011;65772;51.096;17.006;2023-02-10T08:07:48;17.10;;;8.80;;
76818;SDS011;65772;51.096;17.006;2023-02-10T08:10:17;21.50;;;9.40;;
76818;SDS011;65772;51.096;17.006;2023-02-10T08:12:45;21.20;;;9.60;;
76818;SDS011;65772;51.096;17.006;2023-02-10T08:15:13;21.70;;;9.70;;
76818;SDS011;65772;51.096;17.006;2023-02-10T08:17:43;19.80;;;10.10;;
76818;SDS011;65772;51.096;17.006;2023-02-10T08:20:11;25.90;;;10.10;;
76818;SDS011;65772;51.096;17.006;2023-02-10T08:22:40;22.90;;;10.00;;
76818;SDS011;65772;51.096;17.006;2023-02-10T08:25:08;21.60;;;9.50;;
76818;SDS011;65772;51.096;17.006;2023-02-10T08:27:36;25.70;;;10.40;;
76818;SDS011;65772;51.096;17.006;2023-02-10T08:30:06;27.60;;;12.40;;
76818;SDS011;65772;51.096;17.006;2023-02-10T08:32:36;29.10;;;12.00;;
76818;SDS011;65772;51.096;17.006;2023-02-10T08:35:05;26.00;;;11.60;;
76818;SDS011;65772;51.096;17.006;2023-02-10T08:37:33;22.50;;;10.40;;
76818;SDS011;65772;51.096;17.006;2023-02-10T08:40:02;24.60;;;10.40;;
76818;SDS011;65772;51.096;17.006;2023-02-10T08:42:32;24.20;;;10.10;;
76818;SDS011;65772;51.096;17.006;2023-02-10T08:45:01;35.60;;;14.00;;
76818;SDS011;65772;51.096;17.006;2023-02-10T08:47:29;22.60;;;10.20;;
76818;SDS011;65772;51.096;17.006;2023-02-10T08:49:57;26.90;;;11.60;;
76818;SDS011;65772;51.096;17.006;2023-02-10T08:52:25;30.30;;;11.80;;
76818;SDS011;65772;51.096;17.006;2023-02-10T08:54:54;29.50;;;11.80;;
76818;SDS011;65772;51.096;17.006;2023-02-10T08:57:23;25.40;;;11.10;;
76818;SDS011;65772;51.096;17.006;2023-02-10T08:59:51;28.20;;;12.30;;
76818;SDS011;65772;51.096;17.006;2023-02-10T09:02:19;31.60;;;13.30;;
76818;SDS011;65772;51.096;17.006;2023-02-10T09:04:47;25.10;;;11.40;;
76818;SDS011;65772;51.096;17.006;2023-02-10T09:07:27;26.30;;;11.10;;
76818;SDS011;65772;51.096;17.006;2023-02-10T09:09:55;25.20;;;10.80;;
76818;SDS011;65772;51.096;17.006;2023-02-10T09:12:23;25.90;;;11.90;;
76818;SDS011;65772;51.096;17.006;2023-02-10T09:14:51;27.50;;;11.10;;
76818;SDS011;65772;51.096;17.006;2023-02-10T09:17:19;26.00;;;10.60;;
76818;SDS011;65772;51.096;17.006;2023-02-10T09:19:47;28.40;;;11.80;;
76818;SDS011;65772;51.096;17.006;2023-02-10T09:22:15;27.40;;;11.90;;
76818;SDS011;65772;51.096;17.006;2023-02-10T09:24:44;25.30;;;11.30;;
76818;SDS011;65772;51.096;17.006;2023-02-10T09:27:15;28.90;;;10.70;;
76818;SDS011;65772;51.096;17.006;2023-02-10T09:29:43;25.90;;;11.00;;
76818;SDS011;65772;51.096;17.006;2023-02-10T09:32:12;28.60;;;12.10;;
76818;SDS011;65772;51.096;17.006;2023-02-10T09:34:40;26.00;;;12.20;;
76818;SDS011;65772;51.096;17.006;2023-02-10T09:37:09;23.30;;;10.30;;
76818;SDS011;65772;51.096;17.006;2023-02-10T09:39:37;24.50;;;10.90;;
76818;SDS011;65772;51.096;17.006;2023-02-10T09:42:08;23.10;;;10.50;;
76818;SDS011;65772;51.096;17.006;2023-02-10T09:44:45;23.80;;;10.80;;
76818;SDS011;65772;51.096;17.006;2023-02-10T09:47:32;25.10;;;9.90;;
76818;SDS011;65772;51.096;17.006;2023-02-10T09:50:24;24.80;;;11.70;;
76818;SDS011;65772;51.096;17.006;2023-02-10T09:53:03;23.30;;;10.00;;
76818;SDS011;65772;51.096;17.006;2023-02-10T09:55:37;22.90;;;10.80;;
76818;SDS011;65772;51.096;17.006;2023-02-10T09:58:12;26.50;;;10.20;;
76818;SDS011;65772;51.096;17.006;2023-02-10T10:00:50;24.90;;;9.90;;
76818;SDS011;65772;51.096;17.006;2023-02-10T10:03:26;24.50;;;9.70;;
76818;SDS011;65772;51.096;17.006;2023-02-10T10:06:04;23.50;;;10.50;;
76818;SDS011;65772;51.096;17.006;2023-02-10T10:08:43;23.20;;;10.90;;
76818;SDS011;65772;51.096;17.006;2023-02-10T10:11:24;28.10;;;11.30;;
76818;SDS011;65772;51.096;17.006;2023-02-10T10:13:55;25.10;;;10.60;;
76818;SDS011;65772;51.096;17.006;2023-02-10T10:16:38;27.40;;;12.00;;
76818;SDS011;65772;51.096;17.006;2023-02-10T10:19:16;26.50;;;11.60;;
76818;SDS011;65772;51.096;17.006;2023-02-10T10:21:52;24.60;;;10.60;;
76818;SDS011;65772;51.096;17.006;2023-02-10T10:24:39;23.20;;;10.30;;
76818;SDS011;65772;51.096;17.006;2023-02-10T10:27:22;22.40;;;9.60;;
76818;SDS011;65772;51.096;17.006;2023-02-10T10:29:59;26.50;;;12.30;;
76818;SDS011;65772;51.096;17.006;2023-02-10T10:32:37;27.10;;;10.40;;
76818;SDS011;65772;51.096;17.006;2023-02-10T10:35:12;22.90;;;10.80;;
76818;SDS011;65772;51.096;17.006;2023-02-10T10:37:45;23.70;;;10.30;;
76818;SDS011;65772;51.096;17.006;2023-02-10T10:40:15;23.80;;;10.60;;
76818;SDS011;65772;51.096;17.006;2023-02-10T10:42:46;28.50;;;12.00;;
76818;SDS011;65772;51.096;17.006;2023-02-10T10:45:18;27.00;;;10.60;;
76818;SDS011;65772;51.096;17.006;2023-02-10T10:47:49;26.40;;;11.40;;
76818;SDS011;65772;51.096;17.006;2023-02-10T10:50:22;28.80;;;12.20;;
76818;SDS011;65772;51.096;17.006;2023-02-10T10:52:51;26.90;;;11.50;;
76818;SDS011;65772;51.096;17.006;2023-02-10T10:55:22;25.30;;;11.80;;
76818;SDS011;65772;51.096;17.006;2023-02-10T10:57:52;28.90;;;12.40;;
76818;SDS011;65772;51.096;17.006;2023-02-10T11:00:23;27.30;;;11.20;;
76818;SDS011;65772;51.096;17.006;2023-02-10T11:02:56;23.40;;;10.70;;
76818;SDS011;65772;51.096;17.006;2023-02-10T11:05:27;28.50;;;11.50;;
76818;SDS011;65772;51.096;17.006;2023-02-10T11:07:58;27.90;;;12.20;;
76818;SDS011;65772;51.096;17.006;2023-02-10T11:10:30;28.80;;;12.40;;
76818;SDS011;65772;51.096;17.006;2023-02-10T11:13:02;25.70;;;11.30;;
76818;SDS011;65772;51.096;17.006;2023-02-10T11:15:37;30.60;;;12.40;;
76818;SDS011;65772;51.096;17.006;2023-02-10T11:18:07;28.50;;;13.00;;
76818;SDS011;65772;51.096;17.006;2023-02-10T11:20:52;30.20;;;12.70;;
76818;SDS011;65772;51.096;17.006;2023-02-10T11:23:22;28.20;;;12.60;;
76818;SDS011;65772;51.096;17.006;2023-02-10T11:25:58;31.40;;;12.40;;
76818;SDS011;65772;51.096;17.006;2023-02-10T11:28:29;28.40;;;12.30;;
76818;SDS011;65772;51.096;17.006;2023-02-10T11:31:00;30.00;;;12.90;;
76818;SDS011;65772;51.096;17.006;2023-02-10T11:33:31;25.80;;;11.60;;
76818;SDS011;65772;51.096;17.006;2023-02-10T11:36:03;32.10;;;14.80;;
76818;SDS011;65772;51.096;17.006;2023-02-10T11:38:34;31.50;;;13.70;;
76818;SDS011;65772;51.096;17.006;2023-02-10T11:41:04;25.70;;;10.50;;
76818;SDS011;65772;51.096;17.006;2023-02-10T11:46:05;30.00;;;12.50;;
76818;SDS011;65772;51.096;17.006;2023-02-10T11:48:36;32.10;;;14.50;;
76818;SDS011;65772;51.096;17.006;2023-02-10T11:51:05;29.90;;;12.10;;
76818;SDS011;65772;51.096;17.006;2023-02-10T11:53:41;27.50;;;12.40;;
76818;SDS011;65772;51.096;17.006;2023-02-10T11:56:14;27.30;;;12.50;;
76818;SDS011;65772;51.096;17.006;2023-02-10T11:58:50;29.10;;;11.20;;
76818;SDS011;65772;51.096;17.006;2023-02-10T12:01:36;24.30;;;10.20;;
76818;SDS011;65772;51.096;17.006;2023-02-10T12:04:17;29.00;;;10.90;;
76818;SDS011;65772;51.096;17.006;2023-02-10T12:06:58;24.40;;;10.30;;
76818;SDS011;65772;51.096;17.006;2023-02-10T12:09:36;22.60;;;9.30;;
76818;SDS011;65772;51.096;17.006;2023-02-10T12:12:11;24.30;;;9.90;;
76818;SDS011;65772;51.096;17.006;2023-02-10T12:14:49;23.70;;;9.90;;
76818;SDS011;65772;51.096;17.006;2023-02-10T12:17:27;23.20;;;9.50;;
76818;SDS011;65772;51.096;17.006;2023-02-10T12:20:15;23.80;;;9.30;;
76818;SDS011;65772;51.096;17.006;2023-02-10T12:23:00;24.90;;;10.00;;
76818;SDS011;65772;51.096;17.006;2023-02-10T12:25:48;27.00;;;9.70;;
76818;SDS011;65772;51.096;17.006;2023-02-10T12:28:27;22.80;;;9.50;;
76818;SDS011;65772;51.096;17.006;2023-02-10T12:31:02;24.50;;;10.30;;
76818;SDS011;65772;51.096;17.006;2023-02-10T12:33:47;26.00;;;11.00;;
76818;SDS011;65772;51.096;17.006;2023-02-10T12:36:33;23.70;;;10.40;;
76818;SDS011;65772;51.096;17.006;2023-02-10T12:39:12;23.20;;;10.70;;
76818;SDS011;65772;51.096;17.006;2023-02-10T12:41:51;29.10;;;12.10;;
76818;SDS011;65772;51.096;17.006;2023-02-10T12:44:33;28.20;;;11.70;;
76818;SDS011;65772;51.096;17.006;2023-02-10T12:47:14;22.90;;;10.50;;
76818;SDS011;65772;51.096;17.006;2023-02-10T12:50:00;25.30;;;10.10;;
76818;SDS011;65772;51.096;17.006;2023-02-10T12:52:39;28.60;;;11.30;;
76818;SDS011;65772;51.096;17.006;2023-02-10T12:55:13;25.80;;;11.40;;
76818;SDS011;65772;51.096;17.006;2023-02-10T12:57:44;24.90;;;10.80;;
76818;SDS011;65772;51.096;17.006;2023-02-10T13:00:19;24.30;;;10.10;;
76818;SDS011;65772;51.096;17.006;2023-02-10T13:02:52;24.30;;;10.40;;
76818;SDS011;65772;51.096;17.006;2023-02-10T13:05:25;24.10;;;11.20;;
76818;SDS011;65772;51.096;17.006;2023-02-10T13:07:57;18.90;;;8.80;;
76818;SDS011;65772;51.096;17.006;2023-02-10T13:10:29;22.30;;;8.90;;
76818;SDS011;65772;51.096;17.006;2023-02-10T13:13:02;29.80;;;10.50;;
76818;SDS011;65772;51.096;17.006;2023-02-10T13:15:33;27.80;;;11.10;;
76818;SDS011;65772;51.096;17.006;2023-02-10T13:18:07;21.90;;;10.30;;
76818;SDS011;65772;51.096;17.006;2023-02-10T13:20:46;25.30;;;9.20;;
76818;SDS011;65772;51.096;17.006;2023-02-10T13:23:21;21.20;;;9.10;;
76818;SDS011;65772;51.096;17.006;2023-02-10T13:26:07;23.50;;;9.50;;
76818;SDS011;65772;51.096;17.006;2023-02-10T13:29:01;25.50;;;9.40;;
76818;SDS011;65772;51.096;17.006;2023-02-10T13:31:40;21.10;;;9.60;;
76818;SDS011;65772;51.096;17.006;2023-02-10T13:34:25;20.00;;;8.50;;
76818;SDS011;65772;51.096;17.006;2023-02-10T13:36:57;20.20;;;8.90;;
76818;SDS011;65772;51.096;17.006;2023-02-10T13:39:29;18.30;;;6.20;;
76818;SDS011;65772;51.096;17.006;2023-02-10T13:42:06;19.80;;;8.40;;
76818;SDS011;65772;51.096;17.006;2023-02-10T13:44:44;17.80;;;7.90;;
76818;SDS011;65772;51.096;17.006;2023-02-10T13:47:13;16.00;;;7.30;;
76818;SDS011;65772;51.096;17.006;2023-02-10T13:49:50;20.00;;;8.50;;
76818;SDS011;65772;51.096;17.006;2023-02-10T13:52:22;18.60;;;8.30;;
76818;SDS011;65772;51.096;17.006;2023-02-10T13:55:02;17.50;;;7.90;;
76818;SDS011;65772;51.096;17.006;2023-02-10T13:57:52;22.90;;;8.70;;
76818;SDS011;65772;51.096;17.006;2023-02-10T14:00:22;24.30;;;9.30;;
76818;SDS011;65772;51.096;17.006;2023-02-10T14:02:58;21.10;;;7.90;;
76818;SDS011;65772;51.096;17.006;2023-02-10T14:05:28;21.70;;;8.60;;
76818;SDS011;65772;51.096;17.006;2023-02-10T14:07:58;22.20;;;10.40;;
76818;SDS011;65772;51.096;17.006;2023-02-10T14:10:34;20.10;;;7.50;;
76818;SDS011;65772;51.096;17.006;2023-02-10T14:13:03;21.20;;;8.60;;
76818;SDS011;65772;51.096;17.006;2023-02-10T14:15:53;33.00;;;14.10;;
76818;SDS011;65772;51.096;17.006;2023-02-10T14:18:24;20.90;;;8.70;;
76818;SDS011;65772;51.096;17.006;2023-02-10T14:20:57;21.80;;;8.50;;
76818;SDS011;65772;51.096;17.006;2023-02-10T14:23:27;17.10;;;8.30;;
76818;SDS011;65772;51.096;17.006;2023-02-10T14:25:58;23.00;;;8.80;;
76818;SDS011;65772;51.096;17.006;2023-02-10T14:28:29;19.00;;;8.60;;
76818;SDS011;65772;51.096;17.006;2023-02-10T14:31:01;23.70;;;9.80;;
76818;SDS011;65772;51.096;17.006;2023-02-10T14:33:34;19.70;;;9.30;;
76818;SDS011;65772;51.096;17.006;2023-02-10T14:36:03;21.90;;;8.80;;
76818;SDS011;65772;51.096;17.006;2023-02-10T14:38:33;21.90;;;9.50;;
76818;SDS011;65772;51.096;17.006;2023-02-10T14:41:02;19.90;;;8.20;;
76818;SDS011;65772;51.096;17.006;2023-02-10T14:43:46;19.20;;;8.00;;
76818;SDS011;65772;51.096;17.006;2023-02-10T14:46:18;25.80;;;9.70;;
76818;SDS011;65772;51.096;17.006;2023-02-10T14:48:48;19.90;;;9.60;;
76818;SDS011;65772;51.096;17.006;2023-02-10T14:51:20;24.10;;;9.00;;